sensor_id;sensor_type;location;lat;lon;timestamp;temperature;humidity
41928;DHT22;27616;51.420;6.788;2022-10-16T00:01:18;14.10;99.90
41928;DHT22;27616;51.420;6.788;2022-10-16T00:03:44;14.10;99.90
41928;DHT22;27616;51.420;6.788;2022-10-16T00:06:11;14.10;99.90
41928;DHT22;27616;51.420;6.788;2022-10-16T00:08:39;14.10;99.90
41928;DHT22;27616;51.420;6.788;2022-10-16T00:11:06;14.00;99.90
41928;DHT22;27616;51.420;6.788;2022-10-16T00:13:34;14.10;99.90
41928;DHT22;27616;51.420;6.788;2022-10-16T00:16:01;14.10;99.90
41928;DHT22;27616;51.420;6.788;2022-10-16T00:18:28;14.10;99.90
41928;DHT22;27616;51.420;6.788;2022-10-16T00:20:55;14.00;99.90
41928;DHT22;27616;51.420;6.788;2022-10-16T00:23:22;14.00;99.90
41928;DHT22;27616;51.420;6.788;2022-10-16T00:25:57;14.00;99.90
41928;DHT22;27616;51.420;6.788;2022-10-16T00:28:24;14.00;99.90
41928;DHT22;27616;51.420;6.788;2022-10-16T00:30:50;14.00;99.90
41928;DHT22;27616;51.420;6.788;2022-10-16T00:33:16;14.00;99.90
41928;DHT22;27616;51.420;6.788;2022-10-16T00:35:41;14.00;99.90
41928;DHT22;27616;51.420;6.788;2022-10-16T00:38:08;14.00;99.90
41928;DHT22;27616;51.420;6.788;2022-10-16T00:40:33;14.00;99.90
41928;DHT22;27616;51.420;6.788;2022-10-16T00:42:59;14.00;99.90
41928;DHT22;27616;51.420;6.788;2022-10-16T00:45:25;14.00;99.90
41928;DHT22;27616;51.420;6.788;2022-10-16T00:47:52;13.90;99.90
41928;DHT22;27616;51.420;6.788;2022-10-16T00:50:29;14.00;99.90
41928;DHT22;27616;51.420;6.788;2022-10-16T00:52:57;13.90;99.90
41928;DHT22;27616;51.420;6.788;2022-10-16T00:55:24;13.90;99.90
41928;DHT22;27616;51.420;6.788;2022-10-16T00:57:51;13.90;99.90
41928;DHT22;27616;51.420;6.788;2022-10-16T01:00:21;13.90;99.90
41928;DHT22;27616;51.420;6.788;2022-10-16T01:02:54;13.90;99.90
41928;DHT22;27616;51.420;6.788;2022-10-16T01:05:22;13.90;99.90
41928;DHT22;27616;51.420;6.788;2022-10-16T01:10:35;13.90;99.90
41928;DHT22;27616;51.420;6.788;2022-10-16T01:18:10;13.80;99.90
41928;DHT22;27616;51.420;6.788;2022-10-16T01:20:52;13.80;99.90
41928;DHT22;27616;51.420;6.788;2022-10-16T01:23:36;13.80;99.90
41928;DHT22;27616;51.420;6.788;2022-10-16T01:33:09;13.80;99.90
41928;DHT22;27616;51.420;6.788;2022-10-16T01:35:42;13.70;99.90
41928;DHT22;27616;51.420;6.788;2022-10-16T01:38:25;13.70;99.90
41928;DHT22;27616;51.420;6.788;2022-10-16T01:41:36;13.70;99.90
41928;DHT22;27616;51.420;6.788;2022-10-16T01:44:22;13.70;99.90
41928;DHT22;27616;51.420;6.788;2022-10-16T01:46:50;13.70;99.90
41928;DHT22;27616;51.420;6.788;2022-10-16T01:49:22;13.80;99.90
41928;DHT22;27616;51.420;6.788;2022-10-16T01:51:52;13.80;99.90
41928;DHT22;27616;51.420;6.788;2022-10-16T01:54:20;13.80;99.90
41928;DHT22;27616;51.420;6.788;2022-10-16T01:56:49;13.80;99.90
41928;DHT22;27616;51.420;6.788;2022-10-16T01:59:19;13.80;99.90
41928;DHT22;27616;51.420;6.788;2022-10-16T02:01:54;13.80;99.90
41928;DHT22;27616;51.420;6.788;2022-10-16T02:04:40;13.80;99.90
41928;DHT22;27616;51.420;6.788;2022-10-16T02:07:08;13.80;99.90
41928;DHT22;27616;51.420;6.788;2022-10-16T02:09:35;13.80;99.90
41928;DHT22;27616;51.420;6.788;2022-10-16T02:12:06;13.80;99.90
41928;DHT22;27616;51.420;6.788;2022-10-16T02:14:34;13.80;99.90
41928;DHT22;27616;51.420;6.788;2022-10-16T02:17:14;13.80;99.90
41928;DHT22;27616;51.420;6.788;2022-10-16T02:19:41;13.80;99.90
41928;DHT22;27616;51.420;6.788;2022-10-16T02:22:10;13.80;99.90
41928;DHT22;27616;51.420;6.788;2022-10-16T02:27:38;13.80;99.90
41928;DHT22;27616;51.420;6.788;2022-10-16T02:30:56;13.90;99.90
41928;DHT22;27616;51.420;6.788;2022-10-16T02:33:03;13.90;99.90
41928;DHT22;27616;51.420;6.788;2022-10-16T02:35:30;13.90;99.90
41928;DHT22;27616;51.420;6.788;2022-10-16T02:37:57;13.90;99.90
41928;DHT22;27616;51.420;6.788;2022-10-16T02:40:24;14.00;99.90
41928;DHT22;27616;51.420;6.788;2022-10-16T02:42:52;14.00;99.90
41928;DHT22;27616;51.420;6.788;2022-10-16T02:45:18;14.00;99.90
41928;DHT22;27616;51.420;6.788;2022-10-16T02:47:45;14.00;99.90
41928;DHT22;27616;51.420;6.788;2022-10-16T02:50:11;14.00;99.90
41928;DHT22;27616;51.420;6.788;2022-10-16T02:52:37;14.00;99.90
41928;DHT22;27616;51.420;6.788;2022-10-16T02:55:03;14.00;99.90
41928;DHT22;27616;51.420;6.788;2022-10-16T02:57:29;14.00;99.90
41928;DHT22;27616;51.420;6.788;2022-10-16T02:59:55;14.00;99.90
41928;DHT22;27616;51.420;6.788;2022-10-16T03:02:21;14.00;99.90
41928;DHT22;27616;51.420;6.788;2022-10-16T03:04:47;14.00;99.90
41928;DHT22;27616;51.420;6.788;2022-10-16T03:07:12;14.00;99.90
41928;DHT22;27616;51.420;6.788;2022-10-16T03:09:38;14.10;99.90
41928;DHT22;27616;51.420;6.788;2022-10-16T03:12:04;14.10;99.90
41928;DHT22;27616;51.420;6.788;2022-10-16T03:14:30;14.00;99.90
41928;DHT22;27616;51.420;6.788;2022-10-16T03:16:56;14.10;99.90
41928;DHT22;27616;51.420;6.788;2022-10-16T03:19:22;14.10;99.90
41928;DHT22;27616;51.420;6.788;2022-10-16T03:21:47;14.10;99.90
41928;DHT22;27616;51.420;6.788;2022-10-16T03:24:13;14.10;99.90
41928;DHT22;27616;51.420;6.788;2022-10-16T03:26:39;14.10;99.90
41928;DHT22;27616;51.420;6.788;2022-10-16T03:29:05;14.10;99.90
41928;DHT22;27616;51.420;6.788;2022-10-16T03:31:31;14.00;99.90
41928;DHT22;27616;51.420;6.788;2022-10-16T03:33:57;14.10;99.90
41928;DHT22;27616;51.420;6.788;2022-10-16T03:36:23;14.10;99.90
41928;DHT22;27616;51.420;6.788;2022-10-16T03:38:49;14.10;99.90
41928;DHT22;27616;51.420;6.788;2022-10-16T03:41:15;14.00;99.90
41928;DHT22;27616;51.420;6.788;2022-10-16T03:43:41;14.10;99.90
41928;DHT22;27616;51.420;6.788;2022-10-16T03:46:07;14.00;99.90
41928;DHT22;27616;51.420;6.788;2022-10-16T03:48:33;14.00;99.90
41928;DHT22;27616;51.420;6.788;2022-10-16T03:50:59;14.10;99.90
41928;DHT22;27616;51.420;6.788;2022-10-16T03:53:25;14.10;99.90
41928;DHT22;27616;51.420;6.788;2022-10-16T03:55:51;14.00;99.90
41928;DHT22;27616;51.420;6.788;2022-10-16T03:58:17;14.10;99.90
41928;DHT22;27616;51.420;6.788;2022-10-16T04:00:44;14.00;99.90
41928;DHT22;27616;51.420;6.788;2022-10-16T04:03:10;14.00;99.90
41928;DHT22;27616;51.420;6.788;2022-10-16T04:05:37;14.00;99.90
41928;DHT22;27616;51.420;6.788;2022-10-16T04:08:03;14.00;99.90
41928;DHT22;27616;51.420;6.788;2022-10-16T04:10:29;14.00;99.90
41928;DHT22;27616;51.420;6.788;2022-10-16T04:12:55;14.00;99.90
41928;DHT22;27616;51.420;6.788;2022-10-16T04:15:25;14.00;99.90
41928;DHT22;27616;51.420;6.788;2022-10-16T04:17:52;14.00;99.90
41928;DHT22;27616;51.420;6.788;2022-10-16T04:20:18;14.00;99.90
41928;DHT22;27616;51.420;6.788;2022-10-16T04:22:44;14.00;99.90
41928;DHT22;27616;51.420;6.788;2022-10-16T04:25:10;14.00;99.90
41928;DHT22;27616;51.420;6.788;2022-10-16T04:27:37;14.00;99.90
41928;DHT22;27616;51.420;6.788;2022-10-16T04:30:04;14.00;99.90
41928;DHT22;27616;51.420;6.788;2022-10-16T04:32:30;14.00;99.90
41928;DHT22;27616;51.420;6.788;2022-10-16T04:34:56;14.00;99.90
41928;DHT22;27616;51.420;6.788;2022-10-16T04:37:26;14.00;99.90
41928;DHT22;27616;51.420;6.788;2022-10-16T04:39:53;14.00;99.90
41928;DHT22;27616;51.420;6.788;2022-10-16T04:42:20;13.90;99.90
41928;DHT22;27616;51.420;6.788;2022-10-16T04:44:46;13.90;99.90
41928;DHT22;27616;51.420;6.788;2022-10-16T04:47:13;14.00;99.90
41928;DHT22;27616;51.420;6.788;2022-10-16T04:49:39;13.90;99.90
41928;DHT22;27616;51.420;6.788;2022-10-16T04:52:05;13.90;99.90
41928;DHT22;27616;51.420;6.788;2022-10-16T04:54:31;13.90;99.90
41928;DHT22;27616;51.420;6.788;2022-10-16T04:57:00;13.90;99.90
41928;DHT22;27616;51.420;6.788;2022-10-16T04:59:26;13.80;99.90
41928;DHT22;27616;51.420;6.788;2022-10-16T05:01:52;13.80;99.90
41928;DHT22;27616;51.420;6.788;2022-10-16T05:04:18;13.90;99.90
41928;DHT22;27616;51.420;6.788;2022-10-16T05:06:43;13.80;99.90
41928;DHT22;27616;51.420;6.788;2022-10-16T05:09:09;13.80;99.90
41928;DHT22;27616;51.420;6.788;2022-10-16T05:11:35;13.80;99.90
41928;DHT22;27616;51.420;6.788;2022-10-16T05:14:02;13.80;99.90
41928;DHT22;27616;51.420;6.788;2022-10-16T05:16:28;13.90;99.90
41928;DHT22;27616;51.420;6.788;2022-10-16T05:18:55;13.80;99.90
41928;DHT22;27616;51.420;6.788;2022-10-16T05:21:24;13.80;99.90
41928;DHT22;27616;51.420;6.788;2022-10-16T05:23:50;13.80;99.90
41928;DHT22;27616;51.420;6.788;2022-10-16T05:26:18;13.80;99.90
41928;DHT22;27616;51.420;6.788;2022-10-16T05:28:44;13.80;99.90
41928;DHT22;27616;51.420;6.788;2022-10-16T05:31:10;13.80;99.90
41928;DHT22;27616;51.420;6.788;2022-10-16T05:33:36;13.80;99.90
41928;DHT22;27616;51.420;6.788;2022-10-16T05:36:05;13.80;99.90
41928;DHT22;27616;51.420;6.788;2022-10-16T05:38:34;13.80;99.90
41928;DHT22;27616;51.420;6.788;2022-10-16T05:40:59;13.80;99.90
41928;DHT22;27616;51.420;6.788;2022-10-16T05:43:27;13.80;99.90
41928;DHT22;27616;51.420;6.788;2022-10-16T05:45:58;13.80;99.90
41928;DHT22;27616;51.420;6.788;2022-10-16T05:48:24;13.80;99.90
41928;DHT22;27616;51.420;6.788;2022-10-16T05:51:16;13.80;99.90
41928;DHT22;27616;51.420;6.788;2022-10-16T05:53:43;13.80;99.90
41928;DHT22;27616;51.420;6.788;2022-10-16T05:56:10;13.80;99.90
41928;DHT22;27616;51.420;6.788;2022-10-16T05:58:37;13.80;99.90
41928;DHT22;27616;51.420;6.788;2022-10-16T06:01:17;13.80;99.90
41928;DHT22;27616;51.420;6.788;2022-10-16T06:03:43;13.80;99.90
41928;DHT22;27616;51.420;6.788;2022-10-16T06:06:17;13.80;99.90
41928;DHT22;27616;51.420;6.788;2022-10-16T06:08:44;13.80;99.90
41928;DHT22;27616;51.420;6.788;2022-10-16T06:13:44;13.80;99.90
41928;DHT22;27616;51.420;6.788;2022-10-16T06:16:12;13.80;99.90
41928;DHT22;27616;51.420;6.788;2022-10-16T06:18:38;13.80;99.90
41928;DHT22;27616;51.420;6.788;2022-10-16T06:21:09;13.80;99.90
41928;DHT22;27616;51.420;6.788;2022-10-16T06:23:36;13.80;99.90
41928;DHT22;27616;51.420;6.788;2022-10-16T06:26:09;13.80;99.90
41928;DHT22;27616;51.420;6.788;2022-10-16T06:28:36;13.80;99.90
41928;DHT22;27616;51.420;6.788;2022-10-16T06:31:03;13.80;99.90
41928;DHT22;27616;51.420;6.788;2022-10-16T06:33:29;13.80;99.90
41928;DHT22;27616;51.420;6.788;2022-10-16T06:36:07;13.80;99.90
41928;DHT22;27616;51.420;6.788;2022-10-16T06:38:34;13.80;99.90
41928;DHT22;27616;51.420;6.788;2022-10-16T06:41:00;13.80;99.90
41928;DHT22;27616;51.420;6.788;2022-10-16T06:43:28;13.80;99.90
41928;DHT22;27616;51.420;6.788;2022-10-16T06:45:56;13.90;99.90
41928;DHT22;27616;51.420;6.788;2022-10-16T06:48:23;13.80;99.90
41928;DHT22;27616;51.420;6.788;2022-10-16T06:51:00;13.90;99.90
41928;DHT22;27616;51.420;6.788;2022-10-16T06:53:30;13.90;99.90
41928;DHT22;27616;51.420;6.788;2022-10-16T06:55:56;13.90;99.90
41928;DHT22;27616;51.420;6.788;2022-10-16T06:58:22;13.90;99.90
41928;DHT22;27616;51.420;6.788;2022-10-16T07:00:49;13.90;99.90
41928;DHT22;27616;51.420;6.788;2022-10-16T07:03:20;13.90;99.90
41928;DHT22;27616;51.420;6.788;2022-10-16T07:05:46;13.90;99.90
41928;DHT22;27616;51.420;6.788;2022-10-16T07:08:11;13.90;99.90
41928;DHT22;27616;51.420;6.788;2022-10-16T07:10:37;13.90;99.90
41928;DHT22;27616;51.420;6.788;2022-10-16T07:13:03;13.90;99.90
41928;DHT22;27616;51.420;6.788;2022-10-16T07:15:29;13.90;99.90
41928;DHT22;27616;51.420;6.788;2022-10-16T07:17:55;13.90;99.90
41928;DHT22;27616;51.420;6.788;2022-10-16T07:20:21;13.90;99.90
41928;DHT22;27616;51.420;6.788;2022-10-16T07:22:46;13.90;99.90
41928;DHT22;27616;51.420;6.788;2022-10-16T07:25:12;13.90;99.90
41928;DHT22;27616;51.420;6.788;2022-10-16T07:27:38;13.90;99.90
41928;DHT22;27616;51.420;6.788;2022-10-16T07:30:05;13.90;99.90
41928;DHT22;27616;51.420;6.788;2022-10-16T07:32:31;14.00;99.90
41928;DHT22;27616;51.420;6.788;2022-10-16T07:34:58;14.00;99.90
41928;DHT22;27616;51.420;6.788;2022-10-16T07:37:23;14.00;99.90
41928;DHT22;27616;51.420;6.788;2022-10-16T07:39:49;14.00;99.90
41928;DHT22;27616;51.420;6.788;2022-10-16T07:42:15;14.00;99.90
41928;DHT22;27616;51.420;6.788;2022-10-16T07:44:41;14.00;99.90
41928;DHT22;27616;51.420;6.788;2022-10-16T07:47:07;14.10;99.90
41928;DHT22;27616;51.420;6.788;2022-10-16T07:49:32;14.10;99.90
41928;DHT22;27616;51.420;6.788;2022-10-16T07:51:58;14.10;99.90
41928;DHT22;27616;51.420;6.788;2022-10-16T07:54:26;14.10;99.90
41928;DHT22;27616;51.420;6.788;2022-10-16T07:56:52;14.20;99.90
41928;DHT22;27616;51.420;6.788;2022-10-16T07:59:18;14.20;99.90
41928;DHT22;27616;51.420;6.788;2022-10-16T08:01:44;14.20;99.90
41928;DHT22;27616;51.420;6.788;2022-10-16T08:04:10;14.30;99.90
41928;DHT22;27616;51.420;6.788;2022-10-16T08:06:39;14.30;99.90
41928;DHT22;27616;51.420;6.788;2022-10-16T08:09:07;14.30;99.90
41928;DHT22;27616;51.420;6.788;2022-10-16T08:11:33;14.40;99.90
41928;DHT22;27616;51.420;6.788;2022-10-16T08:13:59;14.40;99.90
41928;DHT22;27616;51.420;6.788;2022-10-16T08:16:24;14.40;99.90
41928;DHT22;27616;51.420;6.788;2022-10-16T08:18:50;14.40;99.90
41928;DHT22;27616;51.420;6.788;2022-10-16T08:21:19;14.50;99.90
41928;DHT22;27616;51.420;6.788;2022-10-16T08:23:45;14.50;99.90
41928;DHT22;27616;51.420;6.788;2022-10-16T08:26:12;14.60;99.90
41928;DHT22;27616;51.420;6.788;2022-10-16T08:28:38;14.60;99.90
41928;DHT22;27616;51.420;6.788;2022-10-16T08:31:12;14.70;99.90
41928;DHT22;27616;51.420;6.788;2022-10-16T08:33:39;14.60;99.90
41928;DHT22;27616;51.420;6.788;2022-10-16T08:36:06;14.70;99.90
41928;DHT22;27616;51.420;6.788;2022-10-16T08:38:33;14.70;99.90
41928;DHT22;27616;51.420;6.788;2022-10-16T08:49:37;14.80;99.90
41928;DHT22;27616;51.420;6.788;2022-10-16T08:52:03;14.90;99.90
41928;DHT22;27616;51.420;6.788;2022-10-16T08:54:42;15.00;99.90
41928;DHT22;27616;51.420;6.788;2022-10-16T08:57:27;15.10;99.90
41928;DHT22;27616;51.420;6.788;2022-10-16T08:59:53;15.10;99.90
41928;DHT22;27616;51.420;6.788;2022-10-16T09:02:29;15.10;99.90
41928;DHT22;27616;51.420;6.788;2022-10-16T09:05:17;15.10;99.90
41928;DHT22;27616;51.420;6.788;2022-10-16T09:10:24;15.20;99.90
41928;DHT22;27616;51.420;6.788;2022-10-16T09:13:08;15.20;99.90
41928;DHT22;27616;51.420;6.788;2022-10-16T09:18:43;15.30;99.90
41928;DHT22;27616;51.420;6.788;2022-10-16T09:21:27;15.30;99.90
41928;DHT22;27616;51.420;6.788;2022-10-16T09:23:58;15.30;99.90
41928;DHT22;27616;51.420;6.788;2022-10-16T09:26:25;15.40;99.90
41928;DHT22;27616;51.420;6.788;2022-10-16T09:28:52;15.30;99.90
41928;DHT22;27616;51.420;6.788;2022-10-16T09:31:20;15.30;99.90
41928;DHT22;27616;51.420;6.788;2022-10-16T09:33:52;15.40;99.90
41928;DHT22;27616;51.420;6.788;2022-10-16T09:36:20;15.40;99.90
41928;DHT22;27616;51.420;6.788;2022-10-16T09:38:47;15.40;99.90
41928;DHT22;27616;51.420;6.788;2022-10-16T09:41:19;15.40;99.90
41928;DHT22;27616;51.420;6.788;2022-10-16T09:43:57;15.40;99.90
41928;DHT22;27616;51.420;6.788;2022-10-16T09:46:33;15.50;99.90
41928;DHT22;27616;51.420;6.788;2022-10-16T09:49:01;15.50;99.90
41928;DHT22;27616;51.420;6.788;2022-10-16T09:51:30;15.50;99.90
41928;DHT22;27616;51.420;6.788;2022-10-16T09:53:57;15.50;99.90
41928;DHT22;27616;51.420;6.788;2022-10-16T09:56:30;15.50;99.90
41928;DHT22;27616;51.420;6.788;2022-10-16T09:59:00;15.60;99.90
41928;DHT22;27616;51.420;6.788;2022-10-16T10:01:37;15.60;99.90
41928;DHT22;27616;51.420;6.788;2022-10-16T10:04:05;15.70;99.90
41928;DHT22;27616;51.420;6.788;2022-10-16T10:06:45;15.70;99.90
41928;DHT22;27616;51.420;6.788;2022-10-16T10:09:22;15.70;99.90
41928;DHT22;27616;51.420;6.788;2022-10-16T10:11:59;15.80;99.90
41928;DHT22;27616;51.420;6.788;2022-10-16T10:14:46;15.80;99.90
41928;DHT22;27616;51.420;6.788;2022-10-16T10:17:16;15.90;99.90
41928;DHT22;27616;51.420;6.788;2022-10-16T10:22:43;16.10;99.90
41928;DHT22;27616;51.420;6.788;2022-10-16T10:30:22;16.30;99.90
41928;DHT22;27616;51.420;6.788;2022-10-16T10:43:37;16.30;99.90
41928;DHT22;27616;51.420;6.788;2022-10-16T10:46:14;16.30;99.90
41928;DHT22;27616;51.420;6.788;2022-10-16T10:52:13;16.40;99.90
41928;DHT22;27616;51.420;6.788;2022-10-16T10:58:13;16.50;99.90
41928;DHT22;27616;51.420;6.788;2022-10-16T11:06:48;16.50;99.90
41928;DHT22;27616;51.420;6.788;2022-10-16T11:09:30;16.50;99.90
41928;DHT22;27616;51.420;6.788;2022-10-16T11:12:11;16.40;99.90
41928;DHT22;27616;51.420;6.788;2022-10-16T11:14:48;16.30;99.90
41928;DHT22;27616;51.420;6.788;2022-10-16T11:17:27;16.30;99.90
41928;DHT22;27616;51.420;6.788;2022-10-16T11:20:03;16.30;99.90
41928;DHT22;27616;51.420;6.788;2022-10-16T11:25:21;16.30;99.90
41928;DHT22;27616;51.420;6.788;2022-10-16T11:28:02;16.30;99.90
41928;DHT22;27616;51.420;6.788;2022-10-16T11:30:31;16.40;99.90
41928;DHT22;27616;51.420;6.788;2022-10-16T11:33:22;16.40;99.90
41928;DHT22;27616;51.420;6.788;2022-10-16T11:36:11;16.40;99.90
41928;DHT22;27616;51.420;6.788;2022-10-16T11:39:21;16.50;99.90
41928;DHT22;27616;51.420;6.788;2022-10-16T11:42:03;16.50;99.90
41928;DHT22;27616;51.420;6.788;2022-10-16T11:44:50;16.50;99.90
41928;DHT22;27616;51.420;6.788;2022-10-16T11:49:58;16.50;99.90
41928;DHT22;27616;51.420;6.788;2022-10-16T11:52:29;16.50;99.90
41928;DHT22;27616;51.420;6.788;2022-10-16T11:54:59;16.50;99.90
41928;DHT22;27616;51.420;6.788;2022-10-16T11:57:32;16.50;99.90
41928;DHT22;27616;51.420;6.788;2022-10-16T12:00:42;16.50;99.90
41928;DHT22;27616;51.420;6.788;2022-10-16T12:03:18;16.50;99.90
41928;DHT22;27616;51.420;6.788;2022-10-16T12:06:12;16.50;99.90
41928;DHT22;27616;51.420;6.788;2022-10-16T12:08:43;16.40;99.90
41928;DHT22;27616;51.420;6.788;2022-10-16T12:16:58;16.40;99.90
41928;DHT22;27616;51.420;6.788;2022-10-16T12:19:27;16.50;99.90
41928;DHT22;27616;51.420;6.788;2022-10-16T12:21:57;16.50;99.90
41928;DHT22;27616;51.420;6.788;2022-10-16T12:26:55;16.50;99.90
41928;DHT22;27616;51.420;6.788;2022-10-16T12:29:37;16.50;99.90
41928;DHT22;27616;51.420;6.788;2022-10-16T12:32:06;16.50;99.90
41928;DHT22;27616;51.420;6.788;2022-10-16T12:34:45;16.50;99.90
41928;DHT22;27616;51.420;6.788;2022-10-16T12:37:37;16.60;99.90
41928;DHT22;27616;51.420;6.788;2022-10-16T12:40:26;16.60;99.90
41928;DHT22;27616;51.420;6.788;2022-10-16T12:42:52;16.60;99.90
41928;DHT22;27616;51.420;6.788;2022-10-16T12:45:26;16.60;99.90
41928;DHT22;27616;51.420;6.788;2022-10-16T12:47:53;16.60;99.90
41928;DHT22;27616;51.420;6.788;2022-10-16T12:53:00;16.60;99.90
41928;DHT22;27616;51.420;6.788;2022-10-16T12:55:26;16.70;99.90
41928;DHT22;27616;51.420;6.788;2022-10-16T12:58:08;16.70;99.90
41928;DHT22;27616;51.420;6.788;2022-10-16T13:00:45;16.70;99.90
41928;DHT22;27616;51.420;6.788;2022-10-16T13:03:26;16.70;99.90
41928;DHT22;27616;51.420;6.788;2022-10-16T13:09:09;16.80;99.90
41928;DHT22;27616;51.420;6.788;2022-10-16T13:14:49;16.70;99.90
41928;DHT22;27616;51.420;6.788;2022-10-16T13:20:34;16.70;99.90
41928;DHT22;27616;51.420;6.788;2022-10-16T13:28:33;16.80;99.90
41928;DHT22;27616;51.420;6.788;2022-10-16T13:31:01;16.80;99.90
41928;DHT22;27616;51.420;6.788;2022-10-16T13:33:33;16.80;99.90
41928;DHT22;27616;51.420;6.788;2022-10-16T13:36:01;16.80;99.90
41928;DHT22;27616;51.420;6.788;2022-10-16T13:38:30;16.80;99.90
41928;DHT22;27616;51.420;6.788;2022-10-16T13:40:58;16.90;99.90
41928;DHT22;27616;51.420;6.788;2022-10-16T13:43:38;16.90;99.90
41928;DHT22;27616;51.420;6.788;2022-10-16T13:46:07;16.90;99.90
41928;DHT22;27616;51.420;6.788;2022-10-16T13:48:37;16.80;99.90
41928;DHT22;27616;51.420;6.788;2022-10-16T13:51:07;16.70;99.90
41928;DHT22;27616;51.420;6.788;2022-10-16T13:53:36;16.70;99.90
41928;DHT22;27616;51.420;6.788;2022-10-16T13:56:04;16.60;99.90
41928;DHT22;27616;51.420;6.788;2022-10-16T13:58:30;16.60;99.90
41928;DHT22;27616;51.420;6.788;2022-10-16T14:01:06;16.60;99.90
41928;DHT22;27616;51.420;6.788;2022-10-16T14:03:38;16.60;99.90
41928;DHT22;27616;51.420;6.788;2022-10-16T14:06:12;16.60;99.90
41928;DHT22;27616;51.420;6.788;2022-10-16T14:08:43;16.60;99.90
41928;DHT22;27616;51.420;6.788;2022-10-16T14:11:10;16.60;99.90
41928;DHT22;27616;51.420;6.788;2022-10-16T14:13:38;16.70;99.90
41928;DHT22;27616;51.420;6.788;2022-10-16T14:16:10;16.70;99.90
41928;DHT22;27616;51.420;6.788;2022-10-16T14:18:38;16.80;99.90
41928;DHT22;27616;51.420;6.788;2022-10-16T14:21:07;16.90;99.90
41928;DHT22;27616;51.420;6.788;2022-10-16T14:23:37;16.90;99.90
41928;DHT22;27616;51.420;6.788;2022-10-16T14:28:37;16.80;99.90
41928;DHT22;27616;51.420;6.788;2022-10-16T14:31:26;16.80;99.90
41928;DHT22;27616;51.420;6.788;2022-10-16T14:33:52;16.70;99.90
41928;DHT22;27616;51.420;6.788;2022-10-16T14:36:18;16.70;99.90
41928;DHT22;27616;51.420;6.788;2022-10-16T14:39:06;16.70;99.90
41928;DHT22;27616;51.420;6.788;2022-10-16T14:41:47;16.70;99.90
41928;DHT22;27616;51.420;6.788;2022-10-16T14:44:14;16.80;99.90
41928;DHT22;27616;51.420;6.788;2022-10-16T14:46:41;16.70;99.90
41928;DHT22;27616;51.420;6.788;2022-10-16T14:51:37;16.80;99.90
41928;DHT22;27616;51.420;6.788;2022-10-16T14:54:04;16.70;99.90
41928;DHT22;27616;51.420;6.788;2022-10-16T14:56:33;16.70;99.90
41928;DHT22;27616;51.420;6.788;2022-10-16T14:59:00;16.70;99.90
41928;DHT22;27616;51.420;6.788;2022-10-16T15:01:27;16.70;99.90
41928;DHT22;27616;51.420;6.788;2022-10-16T15:03:53;16.70;99.90
41928;DHT22;27616;51.420;6.788;2022-10-16T15:06:20;16.70;99.90
41928;DHT22;27616;51.420;6.788;2022-10-16T15:08:46;16.60;99.90
41928;DHT22;27616;51.420;6.788;2022-10-16T15:11:17;16.60;99.90
41928;DHT22;27616;51.420;6.788;2022-10-16T15:13:43;16.50;99.90
41928;DHT22;27616;51.420;6.788;2022-10-16T15:16:14;16.50;99.90
41928;DHT22;27616;51.420;6.788;2022-10-16T15:18:40;16.40;99.90
41928;DHT22;27616;51.420;6.788;2022-10-16T15:21:06;16.30;99.90
41928;DHT22;27616;51.420;6.788;2022-10-16T15:23:31;16.30;99.90
41928;DHT22;27616;51.420;6.788;2022-10-16T15:25:57;16.30;99.90
41928;DHT22;27616;51.420;6.788;2022-10-16T15:28:24;16.20;99.90
41928;DHT22;27616;51.420;6.788;2022-10-16T15:30:52;16.20;99.90
41928;DHT22;27616;51.420;6.788;2022-10-16T15:33:21;16.10;99.90
41928;DHT22;27616;51.420;6.788;2022-10-16T15:35:51;16.10;99.90
41928;DHT22;27616;51.420;6.788;2022-10-16T15:38:19;16.10;99.90
41928;DHT22;27616;51.420;6.788;2022-10-16T15:40:46;16.10;99.90
41928;DHT22;27616;51.420;6.788;2022-10-16T15:43:12;16.00;99.90
41928;DHT22;27616;51.420;6.788;2022-10-16T15:45:38;16.00;99.90
41928;DHT22;27616;51.420;6.788;2022-10-16T15:48:04;16.00;99.90
41928;DHT22;27616;51.420;6.788;2022-10-16T15:50:31;15.90;99.90
41928;DHT22;27616;51.420;6.788;2022-10-16T15:52:57;15.90;99.90
41928;DHT22;27616;51.420;6.788;2022-10-16T15:55:22;15.90;99.90
41928;DHT22;27616;51.420;6.788;2022-10-16T15:57:48;15.90;99.90
41928;DHT22;27616;51.420;6.788;2022-10-16T16:00:16;15.90;99.90
41928;DHT22;27616;51.420;6.788;2022-10-16T16:02:43;15.90;99.90
41928;DHT22;27616;51.420;6.788;2022-10-16T16:05:10;15.90;99.90
41928;DHT22;27616;51.420;6.788;2022-10-16T16:07:37;15.90;99.90
41928;DHT22;27616;51.420;6.788;2022-10-16T16:10:05;15.80;99.90
41928;DHT22;27616;51.420;6.788;2022-10-16T16:12:32;15.90;99.90
41928;DHT22;27616;51.420;6.788;2022-10-16T16:14:58;15.80;99.90
41928;DHT22;27616;51.420;6.788;2022-10-16T16:17:23;15.80;99.90
41928;DHT22;27616;51.420;6.788;2022-10-16T16:19:50;15.80;99.90
41928;DHT22;27616;51.420;6.788;2022-10-16T16:22:16;15.80;99.90
41928;DHT22;27616;51.420;6.788;2022-10-16T16:24:42;15.80;99.90
41928;DHT22;27616;51.420;6.788;2022-10-16T16:27:08;15.80;99.90
41928;DHT22;27616;51.420;6.788;2022-10-16T16:29:34;15.80;99.90
41928;DHT22;27616;51.420;6.788;2022-10-16T16:32:00;15.70;99.90
41928;DHT22;27616;51.420;6.788;2022-10-16T16:34:27;15.70;99.90
41928;DHT22;27616;51.420;6.788;2022-10-16T16:36:56;15.70;99.90
41928;DHT22;27616;51.420;6.788;2022-10-16T16:39:23;15.70;99.90
41928;DHT22;27616;51.420;6.788;2022-10-16T16:41:49;15.70;99.90
41928;DHT22;27616;51.420;6.788;2022-10-16T16:44:15;15.70;99.90
41928;DHT22;27616;51.420;6.788;2022-10-16T16:46:42;15.60;99.90
41928;DHT22;27616;51.420;6.788;2022-10-16T16:49:10;15.60;99.90
41928;DHT22;27616;51.420;6.788;2022-10-16T16:51:36;15.60;99.90
41928;DHT22;27616;51.420;6.788;2022-10-16T16:54:02;15.60;99.90
41928;DHT22;27616;51.420;6.788;2022-10-16T16:56:28;15.60;99.90
41928;DHT22;27616;51.420;6.788;2022-10-16T16:58:56;15.50;99.90
41928;DHT22;27616;51.420;6.788;2022-10-16T17:01:23;15.50;99.90
41928;DHT22;27616;51.420;6.788;2022-10-16T17:03:51;15.50;99.90
41928;DHT22;27616;51.420;6.788;2022-10-16T17:06:21;15.50;99.90
41928;DHT22;27616;51.420;6.788;2022-10-16T17:08:48;15.50;99.90
41928;DHT22;27616;51.420;6.788;2022-10-16T17:11:19;15.40;99.90
41928;DHT22;27616;51.420;6.788;2022-10-16T17:13:46;15.40;99.90
41928;DHT22;27616;51.420;6.788;2022-10-16T17:16:12;15.40;99.90
41928;DHT22;27616;51.420;6.788;2022-10-16T17:18:38;15.40;99.90
41928;DHT22;27616;51.420;6.788;2022-10-16T17:21:07;15.40;99.90
41928;DHT22;27616;51.420;6.788;2022-10-16T17:23:36;15.40;99.90
41928;DHT22;27616;51.420;6.788;2022-10-16T17:26:07;15.40;99.90
41928;DHT22;27616;51.420;6.788;2022-10-16T17:28:38;15.40;99.90